createdAt,value
2019-04-26T00:00:34.286Z,31.27
2019-04-26T00:03:07.775Z,31.77
2019-04-26T00:05:38.319Z,31.25
2019-04-26T00:08:10.862Z,32.41
2019-04-26T00:10:53.808Z,31.93
2019-04-26T00:13:37.007Z,32.01
2019-04-26T00:16:37.926Z,31.94
2019-04-26T00:19:07.753Z,31.99
2019-04-26T00:21:37.785Z,32.20
2019-04-26T00:24:07.775Z,32.13
2019-04-26T00:26:38.830Z,32.50
2019-04-26T00:29:08.415Z,31.98
2019-04-26T00:31:38.165Z,32.01
2019-04-26T00:34:08.054Z,32.20
2019-04-26T00:36:37.463Z,33.59
2019-04-26T00:39:07.930Z,32.21
2019-04-26T00:41:38.465Z,32.95
2019-04-26T00:44:08.061Z,34.05
2019-04-26T00:46:38.706Z,32.88
2019-04-26T00:49:10.090Z,33.00
2019-04-26T00:51:40.191Z,32.86
2019-04-26T00:54:10.263Z,33.58
2019-04-26T00:56:40.187Z,33.06
2019-04-26T00:59:10.553Z,33.52
2019-04-26T01:01:43.089Z,33.69
2019-04-26T01:04:12.626Z,33.47
2019-04-26T01:06:44.063Z,33.22
2019-04-26T01:09:13.588Z,33.23
2019-04-26T01:11:43.123Z,34.09
2019-04-26T01:14:12.794Z,33.43
2019-04-26T01:16:42.580Z,33.34
2019-04-26T01:19:13.152Z,33.31
2019-04-26T01:21:47.004Z,32.91
2019-04-26T01:24:19.316Z,33.77
2019-04-26T01:26:50.447Z,34.68
2019-04-26T01:29:21.799Z,33.96
2019-04-26T01:31:59.976Z,34.70
2019-04-26T01:34:30.476Z,34.01
2019-04-26T01:37:00.694Z,34.50
2019-04-26T01:39:30.476Z,35.16
2019-04-26T01:42:10.965Z,35.47
2019-04-26T01:44:49.404Z,36.28
2019-04-26T01:47:20.044Z,36.28
2019-04-26T01:49:51.128Z,36.72
2019-04-26T01:52:22.404Z,36.72
2019-04-26T01:54:51.981Z,37.01
2019-04-26T01:57:23.623Z,37.08
2019-04-26T01:59:57.444Z,37.40
2019-04-26T02:02:46.127Z,38.85
2019-04-26T02:05:22.393Z,38.85
2019-04-26T02:07:52.538Z,38.31
2019-04-26T02:10:25.187Z,38.61
2019-04-26T02:12:56.533Z,38.15
2019-04-26T02:15:29.184Z,38.64
2019-04-26T02:17:59.820Z,38.04
2019-04-26T02:21:15.433Z,38.04
2019-04-26T02:23:54.430Z,39.85
2019-04-26T02:26:52.291Z,38.31
2019-04-26T02:29:27.165Z,37.94
2019-04-26T02:32:02.148Z,37.85
2019-04-26T02:34:35.262Z,37.62
2019-04-26T02:37:06.560Z,37.64
2019-04-26T02:39:39.824Z,37.64
2019-04-26T02:42:22.217Z,37.29
2019-04-26T02:45:11.326Z,37.13
2019-04-26T02:47:52.064Z,37.13
2019-04-26T02:50:32.775Z,36.38
2019-04-26T02:53:44.570Z,36.38
2019-04-26T02:56:30.408Z,36.53
2019-04-26T02:59:23.011Z,35.27
2019-04-26T03:01:54.368Z,35.41
2019-04-26T03:04:25.588Z,35.87
2019-04-26T03:07:03.523Z,34.62
2019-04-26T03:09:31.962Z,34.05
2019-04-26T03:12:06.641Z,33.66
2019-04-26T03:15:13.574Z,33.13
2019-04-26T03:17:54.818Z,32.88
2019-04-26T03:20:34.357Z,32.88
2019-04-26T03:23:45.799Z,32.51
2019-04-26T03:26:13.906Z,32.63
2019-04-26T03:29:13.737Z,32.28
2019-04-26T03:31:56.342Z,32.88
2019-04-26T03:34:45.488Z,32.05
2019-04-26T03:38:01.696Z,32.25
2019-04-26T03:40:59.788Z,32.29
2019-04-26T03:43:55.652Z,32.04
2019-04-26T03:46:45.367Z,31.85
2019-04-26T03:49:54.786Z,31.96
2019-04-26T03:52:41.546Z,31.96
2019-04-26T03:56:03.897Z,31.89
2019-04-26T03:59:03.237Z,31.80
2019-04-26T04:01:37.395Z,32.07
2019-04-26T04:04:27.073Z,32.39
2019-04-26T04:07:04.605Z,32.34
2019-04-26T04:09:30.128Z,32.70
2019-04-26T04:12:12.223Z,32.62
2019-04-26T04:15:05.061Z,32.39
2019-04-26T04:17:50.237Z,32.52
2019-04-26T04:21:01.018Z,32.66
2019-04-26T04:23:50.086Z,32.55
2019-04-26T04:26:26.698Z,32.35
2019-04-26T04:29:42.849Z,31.73
2019-04-26T04:32:13.430Z,31.94
2019-04-26T04:34:47.504Z,31.72
2019-04-26T04:37:18.309Z,31.20
2019-04-26T04:40:37.893Z,31.21
2019-04-26T04:43:32.577Z,30.67
2019-04-26T04:46:35.637Z,30.82
2019-04-26T04:49:21.080Z,30.02
2019-04-26T04:51:54.402Z,29.96
2019-04-26T04:54:36.603Z,29.87
2019-04-26T04:57:31.961Z,29.73
2019-04-26T05:00:33.837Z,30.08
2019-04-26T05:03:27.921Z,30.34
2019-04-26T05:06:25.588Z,30.42
2019-04-26T05:09:12.122Z,30.49
2019-04-26T05:12:09.720Z,31.31
2019-04-26T05:15:02.025Z,31.03
2019-04-26T05:18:04.720Z,31.17
2019-04-26T05:20:42.032Z,31.47
2019-04-26T05:23:55.245Z,31.08
2019-04-26T05:27:02.973Z,31.19
2019-04-26T05:30:21.851Z,31.34
2019-04-26T05:33:16.615Z,31.52
2019-04-26T05:36:19.285Z,32.08
2019-04-26T05:39:17.549Z,31.69
2019-04-26T05:42:20.555Z,31.56
2019-04-26T05:45:29.140Z,31.64
2019-04-26T05:48:30.674Z,31.59
2019-04-26T05:51:49.308Z,31.58
2019-04-26T05:55:33.712Z,31.49
2019-04-26T05:58:34.567Z,31.49
2019-04-26T06:02:07.790Z,30.76
2019-04-26T06:05:08.105Z,30.36
2019-04-26T06:08:08.790Z,30.22
2019-04-26T06:10:59.977Z,29.99
2019-04-26T06:14:19.467Z,29.92
2019-04-26T06:17:27.969Z,29.47
2019-04-26T06:20:23.308Z,29.32
2019-04-26T06:23:30.032Z,29.67
2019-04-26T06:26:30.447Z,28.80
2019-04-26T06:29:13.609Z,28.14
2019-04-26T06:31:55.897Z,26.80
2019-04-26T06:35:02.100Z,27.00
2019-04-26T06:37:50.684Z,27.18
2019-04-26T06:40:58.176Z,27.27
2019-04-26T06:43:34.637Z,26.63
2019-04-26T06:47:08.059Z,26.67
2019-04-26T06:50:12.025Z,26.70
2019-04-26T06:53:14.045Z,26.70
2019-04-26T06:55:55.306Z,26.40
2019-04-26T06:59:11.983Z,26.43
2019-04-26T07:01:59.056Z,25.61
2019-04-26T07:05:10.149Z,25.69
2019-04-26T07:08:18.877Z,26.20
2019-04-26T07:11:32.718Z,25.72
2019-04-26T07:14:12.740Z,25.00
2019-04-26T07:17:06.089Z,25.54
2019-04-26T07:20:04.834Z,25.12
2019-04-26T07:23:16.528Z,24.95
2019-04-26T07:26:42.345Z,24.38
2019-04-26T07:29:40.435Z,23.46
2019-04-26T07:32:37.637Z,23.72
2019-04-26T07:35:24.559Z,24.25
2019-04-26T07:38:46.591Z,24.56
2019-04-26T07:41:56.822Z,24.71
2019-04-26T07:44:54.390Z,24.00
2019-04-26T07:48:15.160Z,23.75
2019-04-26T07:51:30.672Z,24.22
2019-04-26T07:54:30.971Z,23.96
2019-04-26T07:57:41.737Z,23.92
2019-04-26T08:00:27.690Z,24.59
2019-04-26T08:03:10.824Z,23.58
2019-04-26T08:06:09.520Z,23.02
2019-04-26T08:08:51.124Z,23.22
2019-04-26T08:11:23.431Z,22.69
2019-04-26T08:14:08.400Z,22.85
2019-04-26T08:16:49.386Z,23.05
2019-04-26T08:19:21.646Z,22.62
2019-04-26T08:21:52.024Z,22.62
2019-04-26T08:24:24.552Z,22.72
2019-04-26T08:27:18.741Z,24.13
2019-04-26T08:29:43.426Z,22.60
2019-04-26T08:32:21.572Z,23.54
2019-04-26T08:34:57.931Z,22.25
2019-04-26T08:37:37.980Z,22.26
2019-04-26T08:40:09.021Z,22.26
2019-04-26T08:42:45.821Z,23.05
2019-04-26T08:46:01.288Z,23.31
2019-04-26T08:48:32.772Z,22.79
2019-04-26T08:51:05.277Z,22.56
2019-04-26T08:53:35.792Z,23.68
2019-04-26T08:56:06.862Z,22.86
2019-04-26T08:58:39.574Z,22.20
2019-04-26T09:01:33.898Z,21.84
2019-04-26T09:04:29.074Z,22.74
2019-04-26T09:07:09.033Z,22.17
2019-04-26T09:09:40.762Z,22.16
2019-04-26T09:12:23.035Z,22.16
2019-04-26T09:14:51.129Z,21.49
2019-04-26T09:17:20.626Z,21.77
2019-04-26T09:19:50.936Z,21.73
2019-04-26T09:22:48.444Z,21.06
2019-04-26T09:25:39.301Z,21.15
2019-04-26T09:28:31.151Z,21.20
2019-04-26T09:31:19.730Z,21.13
2019-04-26T09:33:56.546Z,20.70
2019-04-26T09:36:26.227Z,20.88
2019-04-26T09:38:55.963Z,20.78
2019-04-26T09:41:26.518Z,20.17
2019-04-26T09:44:01.835Z,20.32
2019-04-26T09:46:52.798Z,20.05
2019-04-26T09:49:33.067Z,20.39
2019-04-26T09:52:03.520Z,20.29
2019-04-26T09:54:33.793Z,20.37
2019-04-26T09:57:03.868Z,20.43
2019-04-26T09:59:36.256Z,20.41
2019-04-26T10:02:06.222Z,20.56
2019-04-26T10:04:36.070Z,20.50
2019-04-26T10:07:06.706Z,20.73
2019-04-26T10:09:36.747Z,20.71
2019-04-26T10:12:14.937Z,20.56
2019-04-26T10:15:13.002Z,20.31
2019-04-26T10:17:42.785Z,20.20
2019-04-26T10:20:13.247Z,20.14
2019-04-26T10:22:43.192Z,20.15
2019-04-26T10:25:16.606Z,20.09
2019-04-26T10:27:45.797Z,20.48
2019-04-26T10:30:17.174Z,20.00
2019-04-26T10:32:46.811Z,19.79
2019-04-26T10:35:17.508Z,20.20
2019-04-26T10:37:49.296Z,19.93
2019-04-26T10:40:19.774Z,20.21
2019-04-26T10:42:49.746Z,20.44
2019-04-26T10:45:19.988Z,19.93
2019-04-26T10:47:49.924Z,19.63
2019-04-26T10:50:19.971Z,19.57
2019-04-26T10:52:59.428Z,19.48
2019-04-26T10:55:50.259Z,19.47
2019-04-26T10:58:55.868Z,19.56
2019-04-26T11:01:26.619Z,19.67
2019-04-26T11:03:56.412Z,19.24
2019-04-26T11:06:27.819Z,18.97
2019-04-26T11:08:58.540Z,18.67
2019-04-26T11:11:28.464Z,18.65
2019-04-26T11:13:58.270Z,18.85
2019-04-26T11:16:28.103Z,18.83
2019-04-26T11:19:01.087Z,19.03
2019-04-26T11:21:31.347Z,19.13
2019-04-26T11:24:00.981Z,19.28
2019-04-26T11:26:30.987Z,18.85
2019-04-26T11:29:02.177Z,18.61
2019-04-26T11:31:32.412Z,17.92
2019-04-26T11:34:05.334Z,17.25
2019-04-26T11:36:33.779Z,18.31
2019-04-26T11:39:07.466Z,18.47
2019-04-26T11:41:39.170Z,18.42
2019-04-26T11:44:08.812Z,18.94
2019-04-26T11:46:44.691Z,18.36
2019-04-26T11:49:09.545Z,18.55
2019-04-26T11:51:39.128Z,18.91
2019-04-26T11:54:08.825Z,18.83
2019-04-26T11:56:38.855Z,18.81
2019-04-26T11:59:08.423Z,18.03
2019-04-26T12:01:40.440Z,17.95
2019-04-26T12:04:31.933Z,17.58
2019-04-26T12:07:10.946Z,16.13
2019-04-26T12:09:42.751Z,15.34
2019-04-26T12:12:13.067Z,15.30
2019-04-26T12:14:44.201Z,15.93
2019-04-26T12:17:13.854Z,16.49
2019-04-26T12:19:43.447Z,17.08
2019-04-26T12:22:13.419Z,16.72
2019-04-26T12:24:43.527Z,15.32
2019-04-26T12:27:13.986Z,13.82
2019-04-26T12:29:47.864Z,12.82
2019-04-26T12:32:17.271Z,11.87
2019-04-26T12:34:47.233Z,11.50
2019-04-26T12:37:20.057Z,10.62
2019-04-26T12:39:49.328Z,11.03
2019-04-26T12:42:19.162Z,11.71
2019-04-26T12:45:07.814Z,12.05
2019-04-26T12:47:48.692Z,12.17
2019-04-26T12:50:20.583Z,11.49
2019-04-26T12:52:51.354Z,10.93
2019-04-26T12:55:21.519Z,10.30
2019-04-26T12:57:50.987Z,10.25
2019-04-26T13:00:28.370Z,9.69
2019-04-26T13:03:00.347Z,9.37
2019-04-26T13:05:30.759Z,8.91
2019-04-26T13:08:00.369Z,8.88
2019-04-26T13:10:44.872Z,9.01
2019-04-26T13:13:34.213Z,8.89
2019-04-26T13:16:26.271Z,8.48
2019-04-26T13:18:56.272Z,8.08
2019-04-26T13:21:26.095Z,7.99
2019-04-26T13:23:56.236Z,7.85
2019-04-26T13:26:25.786Z,7.93
2019-04-26T13:28:57.011Z,8.02
2019-04-26T13:31:31.726Z,7.65
2019-04-26T13:34:02.941Z,7.69
2019-04-26T13:36:31.971Z,8.34
2019-04-26T13:39:01.663Z,8.42
2019-04-26T13:41:34.984Z,8.53
2019-04-26T13:44:05.866Z,8.55
2019-04-26T13:46:57.109Z,8.38
2019-04-26T13:49:37.829Z,8.72
2019-04-26T13:52:07.349Z,8.92
2019-04-26T13:54:38.425Z,9.43
2019-04-26T13:57:11.273Z,9.75
2019-04-26T13:59:41.200Z,9.77
2019-04-26T14:02:12.121Z,10.02
2019-04-26T14:04:42.644Z,10.17
2019-04-26T14:07:12.948Z,10.31
2019-04-26T14:09:42.640Z,10.50
2019-04-26T14:12:18.865Z,10.65
2019-04-26T14:14:43.916Z,11.37
2019-04-26T14:17:13.491Z,11.72
2019-04-26T14:19:45.289Z,12.15
2019-04-26T14:22:18.159Z,12.52
2019-04-26T14:25:02.511Z,12.86
2019-04-26T14:27:39.948Z,13.22
2019-04-26T14:30:09.383Z,13.51
2019-04-26T14:32:39.261Z,13.62
2019-04-26T14:35:11.526Z,14.11
2019-04-26T14:37:41.094Z,14.19
2019-04-26T14:40:17.253Z,14.40
2019-04-26T14:42:47.292Z,14.59
2019-04-26T14:45:24.154Z,14.98
2019-04-26T14:47:53.962Z,15.03
2019-04-26T14:50:24.458Z,15.39
2019-04-26T14:52:54.480Z,15.77
2019-04-26T14:55:24.499Z,16.23
2019-04-26T14:57:55.001Z,16.76
2019-04-26T15:00:29.847Z,17.37
2019-04-26T15:03:05.271Z,17.79
2019-04-26T15:06:05.520Z,18.10
2019-04-26T15:08:35.814Z,18.06
2019-04-26T15:11:06.317Z,18.37
2019-04-26T15:13:40.367Z,18.60
2019-04-26T15:16:10.411Z,18.68
2019-04-26T15:18:40.327Z,19.30
2019-04-26T15:21:13.276Z,19.55
2019-04-26T15:23:43.109Z,19.92
2019-04-26T15:26:13.199Z,20.25
2019-04-26T15:28:43.665Z,20.15
2019-04-26T15:31:17.062Z,20.40
2019-04-26T15:33:48.786Z,20.68
2019-04-26T15:36:17.748Z,20.77
2019-04-26T15:38:50.147Z,21.02
2019-04-26T15:41:37.748Z,21.20
2019-04-26T15:44:20.313Z,21.56
2019-04-26T15:47:06.880Z,21.71
2019-04-26T15:50:09.861Z,21.93
2019-04-26T15:52:36.025Z,22.26
2019-04-26T15:55:06.222Z,21.82
2019-04-26T15:57:38.116Z,22.05
2019-04-26T16:00:07.936Z,21.90
2019-04-26T16:02:38.310Z,22.04
2019-04-26T16:05:08.167Z,22.14
2019-04-26T16:07:39.629Z,23.13
2019-04-26T16:10:09.758Z,22.69
2019-04-26T16:12:39.762Z,22.57
2019-04-26T16:15:11.489Z,22.53
2019-04-26T16:17:41.411Z,22.53
2019-04-26T16:20:11.882Z,22.79
2019-04-26T16:22:43.217Z,22.93
2019-04-26T16:25:13.286Z,22.73
2019-04-26T16:27:43.207Z,22.79
2019-04-26T16:30:32.619Z,22.59
2019-04-26T16:33:09.119Z,23.00
2019-04-26T16:35:52.486Z,22.58
2019-04-26T16:38:33.190Z,22.50
2019-04-26T16:41:03.470Z,22.94
2019-04-26T16:43:40.339Z,23.05
2019-04-26T16:46:06.975Z,23.46
2019-04-26T16:48:38.966Z,23.31
2019-04-26T16:51:09.295Z,23.91
2019-04-26T16:54:07.215Z,24.92
2019-04-26T16:56:59.104Z,24.76
2019-04-26T16:59:33.678Z,24.47
2019-04-26T17:02:04.096Z,25.43
2019-04-26T17:04:36.932Z,25.50
2019-04-26T17:07:10.204Z,25.49
2019-04-26T17:09:57.090Z,24.91
2019-04-26T17:12:17.703Z,24.88
2019-04-26T17:14:52.531Z,25.38
2019-04-26T17:17:23.370Z,25.30
2019-04-26T17:19:53.196Z,25.15
2019-04-26T17:22:44.359Z,25.16
2019-04-26T17:25:23.721Z,25.10
2019-04-26T17:27:48.323Z,25.17
2019-04-26T17:30:26.445Z,25.37
2019-04-26T17:32:56.960Z,26.07
2019-04-26T17:35:28.816Z,25.80
2019-04-26T17:41:17.601Z,25.92
2019-04-26T17:43:56.007Z,25.92
2019-04-26T17:46:27.087Z,25.69
2019-04-26T17:49:00.406Z,25.55
2019-04-26T17:51:32.572Z,25.72
2019-04-26T17:54:26.497Z,25.87
2019-04-26T17:56:45.650Z,25.90
2019-04-26T17:59:33.339Z,25.60
2019-04-26T18:02:00.727Z,26.06
2019-04-26T18:04:34.554Z,26.01
2019-04-26T18:07:03.751Z,25.93
2019-04-26T18:09:41.350Z,25.66
2019-04-26T18:12:03.513Z,25.91
2019-04-26T18:14:33.768Z,25.69
2019-04-26T18:17:23.143Z,28.11
2019-04-26T18:20:06.534Z,27.57
2019-04-26T18:22:43.216Z,27.47
2019-04-26T18:25:19.660Z,26.84
2019-04-26T18:27:50.589Z,26.68
2019-04-26T18:30:21.117Z,26.29
2019-04-26T18:32:55.158Z,26.57
2019-04-26T18:35:25.572Z,26.65
2019-04-26T18:37:56.088Z,26.33
2019-04-26T18:40:35.427Z,26.54
2019-04-26T18:43:03.410Z,26.41
2019-04-26T18:45:35.557Z,26.07
2019-04-26T18:48:05.562Z,25.69
2019-04-26T18:50:36.674Z,25.85
2019-04-26T18:53:40.523Z,26.04
2019-04-26T18:56:12.542Z,26.03
2019-04-26T18:58:43.660Z,26.75
2019-04-26T19:01:15.136Z,27.32
2019-04-26T19:03:44.874Z,26.84
2019-04-26T19:06:27.150Z,27.07
2019-04-26T19:08:50.091Z,27.34
2019-04-26T19:11:19.065Z,27.63
2019-04-26T19:14:13.070Z,27.68
2019-04-26T19:17:08.137Z,27.60
2019-04-26T19:19:55.792Z,27.69
2019-04-26T19:22:26.293Z,28.04
2019-04-26T19:24:57.671Z,28.14
2019-04-26T19:27:28.602Z,28.30
2019-04-26T19:30:04.322Z,28.59
2019-04-26T19:32:35.188Z,28.64
2019-04-26T19:35:07.114Z,28.86
2019-04-26T19:37:37.097Z,28.81
2019-04-26T19:40:09.025Z,29.20
2019-04-26T19:42:38.740Z,29.12
2019-04-26T19:45:18.957Z,29.22
2019-04-26T19:48:07.498Z,29.24
2019-04-26T19:50:48.670Z,29.36
2019-04-26T19:53:54.255Z,29.36
2019-04-26T19:56:46.872Z,29.73
2019-04-26T19:59:16.895Z,29.66
2019-04-26T20:01:49.362Z,29.59
2019-04-26T20:04:24.807Z,29.91
2019-04-26T20:06:55.265Z,29.91
2019-04-26T20:09:27.669Z,29.51
2019-04-26T20:11:59.344Z,30.02
2019-04-26T20:14:39.843Z,29.77
2019-04-26T20:17:01.745Z,30.19
2019-04-26T20:19:37.217Z,30.37
2019-04-26T20:22:06.200Z,29.81
2019-04-26T20:24:37.661Z,29.53
2019-04-26T20:27:07.435Z,29.54
2019-04-26T20:29:40.736Z,29.62
2019-04-26T20:32:24.917Z,29.70
2019-04-26T20:35:19.866Z,29.76
2019-04-26T20:37:47.997Z,29.58
2019-04-26T20:40:22.526Z,29.53
2019-04-26T20:42:51.212Z,29.63
2019-04-26T20:45:22.363Z,29.74
2019-04-26T20:47:55.606Z,30.07
2019-04-26T20:50:28.566Z,29.88
2019-04-26T20:53:01.195Z,29.85
2019-04-26T20:55:34.651Z,30.03
2019-04-26T20:58:08.309Z,30.09
2019-04-26T21:00:37.643Z,30.24
2019-04-26T21:03:21.114Z,30.83
2019-04-26T21:05:58.864Z,30.85
2019-04-26T21:08:31.678Z,30.46
2019-04-26T21:11:08.944Z,30.62
2019-04-26T21:13:47.491Z,30.67
2019-04-26T21:16:34.836Z,30.87
2019-04-26T21:19:08.378Z,30.70
2019-04-26T21:21:42.014Z,30.92
2019-04-26T21:24:19.977Z,30.83
2019-04-26T21:27:11.954Z,30.83
2019-04-26T21:30:01.208Z,30.98
2019-04-26T21:32:47.463Z,30.83
2019-04-26T21:35:24.519Z,30.95
2019-04-26T21:37:59.872Z,31.57
2019-04-26T21:40:33.593Z,30.99
2019-04-26T21:43:03.748Z,31.07
2019-04-26T21:45:34.028Z,30.91
2019-04-26T21:48:06.840Z,31.43
2019-04-26T21:50:39.044Z,31.98
2019-04-26T21:53:08.711Z,32.32
2019-04-26T21:55:38.920Z,31.39
2019-04-26T21:58:14.039Z,31.71
2019-04-26T22:01:06.175Z,31.78
2019-04-26T22:03:38.606Z,32.63
2019-04-26T22:06:08.159Z,32.06
2019-04-26T22:08:41.188Z,32.08
2019-04-26T22:11:13.924Z,32.40
2019-04-26T22:13:51.159Z,31.93
2019-04-26T22:16:37.236Z,32.49
2019-04-26T22:19:27.889Z,32.60
2019-04-26T22:22:15.392Z,32.68
2019-04-26T22:24:46.377Z,32.03
2019-04-26T22:27:25.279Z,32.22
2019-04-26T22:29:55.687Z,31.95
2019-04-26T22:32:25.879Z,31.86
2019-04-26T22:34:56.139Z,32.30
2019-04-26T22:37:29.862Z,32.19
2019-04-26T22:39:58.269Z,32.24
2019-04-26T22:42:36.645Z,32.02
2019-04-26T22:45:21.020Z,31.90
2019-04-26T22:48:19.135Z,32.05
2019-04-26T22:50:45.512Z,31.92
2019-04-26T22:53:15.945Z,32.02
2019-04-26T22:55:45.620Z,32.60
2019-04-26T22:58:15.382Z,32.46
2019-04-26T23:00:48.172Z,32.31
2019-04-26T23:03:19.601Z,32.62
2019-04-26T23:05:49.419Z,32.60
2019-04-26T23:08:19.711Z,32.07
2019-04-26T23:10:52.995Z,32.28
2019-04-26T23:13:51.349Z,32.23
2019-04-26T23:16:40.421Z,31.95
2019-04-26T23:19:19.214Z,32.08
2019-04-26T23:21:55.566Z,31.89
2019-04-26T23:24:23.783Z,31.78
2019-04-26T23:26:54.083Z,31.75
2019-04-26T23:29:23.984Z,31.69
2019-04-26T23:31:55.545Z,31.88
2019-04-26T23:34:25.438Z,31.69
2019-04-26T23:36:55.396Z,31.78
2019-04-26T23:39:25.403Z,31.72
2019-04-26T23:41:55.675Z,31.59
2019-04-26T23:44:25.947Z,31.66
2019-04-26T23:47:01.304Z,32.11
2019-04-26T23:49:27.459Z,31.69
2019-04-26T23:51:57.305Z,31.39
2019-04-26T23:54:28.102Z,31.46
2019-04-26T23:56:59.001Z,31.43
2019-04-26T23:59:31.597Z,31.79
